sensor_id;sensor_type;location;lat;lon;timestamp;P1;durP1;ratioP1;P2;durP2;ratioP2
36009;SDS011;22076;52.182;5.404;2023-09-18T00:02:16;64.47;;;36.90;;
36009;SDS011;22076;52.182;5.404;2023-09-18T00:04:42;45.28;;;29.90;;
36009;SDS011;22076;52.182;5.404;2023-09-18T00:07:09;37.78;;;25.67;;
36009;SDS011;22076;52.182;5.404;2023-09-18T00:09:36;30.10;;;20.35;;
36009;SDS011;22076;52.182;5.404;2023-09-18T00:12:03;40.38;;;27.58;;
36009;SDS011;22076;52.182;5.404;2023-09-18T00:14:30;56.38;;;35.60;;
36009;SDS011;22076;52.182;5.404;2023-09-18T00:16:57;56.35;;;37.13;;
36009;SDS011;22076;52.182;5.404;2023-09-18T00:19:25;52.65;;;35.97;;
36009;SDS011;22076;52.182;5.404;2023-09-18T00:21:51;56.50;;;32.83;;
36009;SDS011;22076;52.182;5.404;2023-09-18T00:24:19;42.80;;;26.73;;
36009;SDS011;22076;52.182;5.404;2023-09-18T00:26:47;56.88;;;39.22;;
36009;SDS011;22076;52.182;5.404;2023-09-18T00:29:13;65.65;;;36.75;;
36009;SDS011;22076;52.182;5.404;2023-09-18T00:31:40;44.42;;;29.23;;
36009;SDS011;22076;52.182;5.404;2023-09-18T00:34:06;60.47;;;37.72;;
36009;SDS011;22076;52.182;5.404;2023-09-18T00:36:34;52.50;;;34.35;;
36009;SDS011;22076;52.182;5.404;2023-09-18T00:39:01;57.47;;;37.50;;
36009;SDS011;22076;52.182;5.404;2023-09-18T00:41:28;45.38;;;29.13;;
36009;SDS011;22076;52.182;5.404;2023-09-18T00:46:25;50.40;;;31.80;;
36009;SDS011;22076;52.182;5.404;2023-09-18T00:48:52;62.45;;;38.20;;
36009;SDS011;22076;52.182;5.404;2023-09-18T00:51:20;62.28;;;39.17;;
36009;SDS011;22076;52.182;5.404;2023-09-18T00:53:47;51.42;;;35.03;;
36009;SDS011;22076;52.182;5.404;2023-09-18T00:56:15;65.80;;;42.38;;
36009;SDS011;22076;52.182;5.404;2023-09-18T00:58:42;61.90;;;38.80;;
36009;SDS011;22076;52.182;5.404;2023-09-18T01:01:09;64.03;;;40.75;;
36009;SDS011;22076;52.182;5.404;2023-09-18T01:03:39;62.22;;;38.55;;
36009;SDS011;22076;52.182;5.404;2023-09-18T01:06:06;65.57;;;41.45;;
36009;SDS011;22076;52.182;5.404;2023-09-18T01:08:32;64.47;;;38.70;;
36009;SDS011;22076;52.182;5.404;2023-09-18T01:11:02;52.38;;;36.20;;
36009;SDS011;22076;52.182;5.404;2023-09-18T01:13:36;40.10;;;27.80;;
36009;SDS011;22076;52.182;5.404;2023-09-18T01:16:08;54.58;;;36.70;;
36009;SDS011;22076;52.182;5.404;2023-09-18T01:18:48;63.42;;;38.35;;
36009;SDS011;22076;52.182;5.404;2023-09-18T01:21:14;52.30;;;36.33;;
36009;SDS011;22076;52.182;5.404;2023-09-18T01:23:43;62.78;;;38.85;;
36009;SDS011;22076;52.182;5.404;2023-09-18T01:26:09;33.38;;;22.60;;
36009;SDS011;22076;52.182;5.404;2023-09-18T01:28:36;29.92;;;18.25;;
36009;SDS011;22076;52.182;5.404;2023-09-18T01:31:03;35.50;;;24.98;;
36009;SDS011;22076;52.182;5.404;2023-09-18T01:33:30;35.67;;;23.15;;
36009;SDS011;22076;52.182;5.404;2023-09-18T01:35:58;37.55;;;24.23;;
36009;SDS011;22076;52.182;5.404;2023-09-18T01:38:26;54.28;;;32.53;;
36009;SDS011;22076;52.182;5.404;2023-09-18T01:40:55;25.02;;;18.02;;
36009;SDS011;22076;52.182;5.404;2023-09-18T01:43:22;42.05;;;28.80;;
36009;SDS011;22076;52.182;5.404;2023-09-18T01:45:49;29.63;;;20.40;;
36009;SDS011;22076;52.182;5.404;2023-09-18T01:48:16;48.35;;;27.20;;
36009;SDS011;22076;52.182;5.404;2023-09-18T01:50:43;42.15;;;27.13;;
36009;SDS011;22076;52.182;5.404;2023-09-18T01:53:10;49.58;;;32.03;;
36009;SDS011;22076;52.182;5.404;2023-09-18T01:55:37;18.30;;;14.18;;
36009;SDS011;22076;52.182;5.404;2023-09-18T01:58:04;38.58;;;27.83;;
36009;SDS011;22076;52.182;5.404;2023-09-18T02:00:31;41.92;;;27.38;;
36009;SDS011;22076;52.182;5.404;2023-09-18T02:02:58;61.67;;;37.72;;
36009;SDS011;22076;52.182;5.404;2023-09-18T02:05:25;20.80;;;15.80;;
36009;SDS011;22076;52.182;5.404;2023-09-18T02:07:51;34.33;;;20.83;;
36009;SDS011;22076;52.182;5.404;2023-09-18T02:10:18;15.48;;;10.70;;
36009;SDS011;22076;52.182;5.404;2023-09-18T02:12:44;42.47;;;25.55;;
36009;SDS011;22076;52.182;5.404;2023-09-18T02:15:12;34.20;;;24.17;;
36009;SDS011;22076;52.182;5.404;2023-09-18T02:17:41;29.83;;;21.05;;
36009;SDS011;22076;52.182;5.404;2023-09-18T02:20:08;32.20;;;22.65;;
36009;SDS011;22076;52.182;5.404;2023-09-18T02:22:36;39.97;;;25.17;;
36009;SDS011;22076;52.182;5.404;2023-09-18T02:25:05;50.10;;;31.67;;
36009;SDS011;22076;52.182;5.404;2023-09-18T02:27:32;43.72;;;27.42;;
36009;SDS011;22076;52.182;5.404;2023-09-18T02:29:58;31.92;;;20.83;;
36009;SDS011;22076;52.182;5.404;2023-09-18T02:32:26;25.23;;;19.55;;
36009;SDS011;22076;52.182;5.404;2023-09-18T02:34:53;44.78;;;28.45;;
36009;SDS011;22076;52.182;5.404;2023-09-18T02:37:19;40.33;;;28.65;;
36009;SDS011;22076;52.182;5.404;2023-09-18T02:39:46;39.55;;;23.85;;
36009;SDS011;22076;52.182;5.404;2023-09-18T02:42:14;35.22;;;20.85;;
36009;SDS011;22076;52.182;5.404;2023-09-18T02:44:40;47.50;;;31.23;;
36009;SDS011;22076;52.182;5.404;2023-09-18T02:47:07;48.22;;;34.03;;
36009;SDS011;22076;52.182;5.404;2023-09-18T02:49:35;22.38;;;15.05;;
36009;SDS011;22076;52.182;5.404;2023-09-18T02:52:01;42.08;;;26.52;;
36009;SDS011;22076;52.182;5.404;2023-09-18T02:54:28;27.67;;;17.70;;
36009;SDS011;22076;52.182;5.404;2023-09-18T02:56:54;17.20;;;13.05;;
36009;SDS011;22076;52.182;5.404;2023-09-18T02:59:21;32.90;;;22.27;;
36009;SDS011;22076;52.182;5.404;2023-09-18T03:01:47;34.72;;;20.90;;
36009;SDS011;22076;52.182;5.404;2023-09-18T03:04:15;28.08;;;17.85;;
36009;SDS011;22076;52.182;5.404;2023-09-18T03:06:42;43.05;;;28.55;;
36009;SDS011;22076;52.182;5.404;2023-09-18T03:09:09;39.33;;;26.00;;
36009;SDS011;22076;52.182;5.404;2023-09-18T03:11:36;31.35;;;20.40;;
36009;SDS011;22076;52.182;5.404;2023-09-18T03:14:02;45.72;;;29.15;;
36009;SDS011;22076;52.182;5.404;2023-09-18T03:16:29;44.08;;;28.42;;
36009;SDS011;22076;52.182;5.404;2023-09-18T03:18:58;27.00;;;19.88;;
36009;SDS011;22076;52.182;5.404;2023-09-18T03:21:24;28.77;;;21.67;;
36009;SDS011;22076;52.182;5.404;2023-09-18T03:23:53;38.38;;;26.65;;
36009;SDS011;22076;52.182;5.404;2023-09-18T03:26:20;38.10;;;24.92;;
36009;SDS011;22076;52.182;5.404;2023-09-18T03:28:46;29.13;;;22.30;;
36009;SDS011;22076;52.182;5.404;2023-09-18T03:31:13;54.42;;;29.77;;
36009;SDS011;22076;52.182;5.404;2023-09-18T03:33:39;34.83;;;23.05;;
36009;SDS011;22076;52.182;5.404;2023-09-18T03:36:06;46.65;;;31.27;;
36009;SDS011;22076;52.182;5.404;2023-09-18T03:38:33;20.23;;;15.05;;
36009;SDS011;22076;52.182;5.404;2023-09-18T03:41:02;47.90;;;30.70;;
36009;SDS011;22076;52.182;5.404;2023-09-18T03:43:28;34.10;;;21.52;;
36009;SDS011;22076;52.182;5.404;2023-09-18T03:45:55;41.05;;;28.15;;
36009;SDS011;22076;52.182;5.404;2023-09-18T03:48:34;22.30;;;13.00;;
36009;SDS011;22076;52.182;5.404;2023-09-18T03:51:02;29.15;;;19.30;;
36009;SDS011;22076;52.182;5.404;2023-09-18T03:53:29;44.63;;;28.85;;
36009;SDS011;22076;52.182;5.404;2023-09-18T03:55:56;22.88;;;16.00;;
36009;SDS011;22076;52.182;5.404;2023-09-18T03:58:24;30.25;;;21.50;;
36009;SDS011;22076;52.182;5.404;2023-09-18T04:00:50;26.08;;;19.00;;
36009;SDS011;22076;52.182;5.404;2023-09-18T04:03:17;20.13;;;14.88;;
36009;SDS011;22076;52.182;5.404;2023-09-18T04:05:43;35.40;;;22.83;;
36009;SDS011;22076;52.182;5.404;2023-09-18T04:08:14;31.40;;;20.00;;
36009;SDS011;22076;52.182;5.404;2023-09-18T04:10:40;49.05;;;29.95;;
36009;SDS011;22076;52.182;5.404;2023-09-18T04:13:07;24.70;;;15.05;;
36009;SDS011;22076;52.182;5.404;2023-09-18T04:15:35;16.27;;;12.43;;
36009;SDS011;22076;52.182;5.404;2023-09-18T04:18:03;40.20;;;27.13;;
36009;SDS011;22076;52.182;5.404;2023-09-18T04:20:30;32.13;;;20.95;;
36009;SDS011;22076;52.182;5.404;2023-09-18T04:25:48;15.93;;;11.27;;
36009;SDS011;22076;52.182;5.404;2023-09-18T04:28:15;17.80;;;11.85;;
36009;SDS011;22076;52.182;5.404;2023-09-18T04:30:44;17.73;;;11.82;;
36009;SDS011;22076;52.182;5.404;2023-09-18T04:33:11;22.70;;;15.13;;
36009;SDS011;22076;52.182;5.404;2023-09-18T04:35:38;25.05;;;15.38;;
36009;SDS011;22076;52.182;5.404;2023-09-18T04:38:06;26.45;;;17.80;;
36009;SDS011;22076;52.182;5.404;2023-09-18T04:40:33;11.57;;;8.60;;
36009;SDS011;22076;52.182;5.404;2023-09-18T04:43:02;27.05;;;17.38;;
36009;SDS011;22076;52.182;5.404;2023-09-18T04:45:29;32.58;;;18.90;;
36009;SDS011;22076;52.182;5.404;2023-09-18T04:47:57;25.92;;;13.30;;
36009;SDS011;22076;52.182;5.404;2023-09-18T04:50:24;35.67;;;21.83;;
36009;SDS011;22076;52.182;5.404;2023-09-18T04:52:51;15.00;;;9.75;;
36009;SDS011;22076;52.182;5.404;2023-09-18T04:55:26;29.38;;;19.63;;
36009;SDS011;22076;52.182;5.404;2023-09-18T04:57:52;33.45;;;19.98;;
36009;SDS011;22076;52.182;5.404;2023-09-18T05:00:19;34.50;;;23.27;;
36009;SDS011;22076;52.182;5.404;2023-09-18T05:02:48;22.67;;;17.38;;
36009;SDS011;22076;52.182;5.404;2023-09-18T05:05:16;20.55;;;14.27;;
36009;SDS011;22076;52.182;5.404;2023-09-18T05:07:43;24.65;;;11.45;;
36009;SDS011;22076;52.182;5.404;2023-09-18T05:10:09;40.17;;;18.90;;
36009;SDS011;22076;52.182;5.404;2023-09-18T05:12:38;12.45;;;10.02;;
36009;SDS011;22076;52.182;5.404;2023-09-18T05:15:06;38.25;;;21.95;;
36009;SDS011;22076;52.182;5.404;2023-09-18T05:17:41;42.03;;;25.05;;
36009;SDS011;22076;52.182;5.404;2023-09-18T05:20:09;39.08;;;22.13;;
36009;SDS011;22076;52.182;5.404;2023-09-18T05:22:39;47.08;;;25.30;;
36009;SDS011;22076;52.182;5.404;2023-09-18T05:25:07;38.60;;;20.30;;
36009;SDS011;22076;52.182;5.404;2023-09-18T05:27:35;16.42;;;11.60;;
36009;SDS011;22076;52.182;5.404;2023-09-18T05:30:09;35.15;;;21.70;;
36009;SDS011;22076;52.182;5.404;2023-09-18T05:32:36;40.00;;;19.38;;
36009;SDS011;22076;52.182;5.404;2023-09-18T05:35:04;33.13;;;15.73;;
36009;SDS011;22076;52.182;5.404;2023-09-18T05:37:35;27.73;;;16.70;;
36009;SDS011;22076;52.182;5.404;2023-09-18T05:40:03;29.23;;;16.33;;
36009;SDS011;22076;52.182;5.404;2023-09-18T05:42:32;34.08;;;18.90;;
36009;SDS011;22076;52.182;5.404;2023-09-18T05:44:58;48.08;;;18.65;;
36009;SDS011;22076;52.182;5.404;2023-09-18T05:47:25;32.53;;;16.88;;
36009;SDS011;22076;52.182;5.404;2023-09-18T05:49:51;17.20;;;11.38;;
36009;SDS011;22076;52.182;5.404;2023-09-18T05:52:23;28.13;;;16.23;;
36009;SDS011;22076;52.182;5.404;2023-09-18T05:54:50;17.63;;;12.70;;
36009;SDS011;22076;52.182;5.404;2023-09-18T05:57:18;14.48;;;9.00;;
36009;SDS011;22076;52.182;5.404;2023-09-18T05:59:45;13.15;;;8.55;;
36009;SDS011;22076;52.182;5.404;2023-09-18T06:02:14;15.45;;;8.15;;
36009;SDS011;22076;52.182;5.404;2023-09-18T06:04:41;16.92;;;11.50;;
36009;SDS011;22076;52.182;5.404;2023-09-18T06:07:08;13.50;;;9.35;;
36009;SDS011;22076;52.182;5.404;2023-09-18T06:09:35;14.75;;;8.18;;
36009;SDS011;22076;52.182;5.404;2023-09-18T06:12:02;15.68;;;11.20;;
36009;SDS011;22076;52.182;5.404;2023-09-18T06:14:37;24.45;;;10.98;;
36009;SDS011;22076;52.182;5.404;2023-09-18T06:17:04;21.38;;;11.48;;
36009;SDS011;22076;52.182;5.404;2023-09-18T06:19:31;13.68;;;9.55;;
36009;SDS011;22076;52.182;5.404;2023-09-18T06:21:58;14.02;;;10.02;;
36009;SDS011;22076;52.182;5.404;2023-09-18T06:24:24;13.52;;;9.43;;
36009;SDS011;22076;52.182;5.404;2023-09-18T06:26:53;10.15;;;8.25;;
36009;SDS011;22076;52.182;5.404;2023-09-18T06:29:19;18.52;;;9.18;;
36009;SDS011;22076;52.182;5.404;2023-09-18T06:31:49;10.00;;;7.30;;
36009;SDS011;22076;52.182;5.404;2023-09-18T06:34:22;22.80;;;12.65;;
36009;SDS011;22076;52.182;5.404;2023-09-18T06:36:48;17.85;;;10.60;;
36009;SDS011;22076;52.182;5.404;2023-09-18T06:39:15;13.05;;;10.05;;
36009;SDS011;22076;52.182;5.404;2023-09-18T06:41:44;16.80;;;10.45;;
36009;SDS011;22076;52.182;5.404;2023-09-18T06:44:10;24.00;;;14.77;;
36009;SDS011;22076;52.182;5.404;2023-09-18T06:46:37;17.55;;;10.48;;
36009;SDS011;22076;52.182;5.404;2023-09-18T06:49:06;21.85;;;13.57;;
36009;SDS011;22076;52.182;5.404;2023-09-18T06:51:32;17.48;;;12.57;;
36009;SDS011;22076;52.182;5.404;2023-09-18T06:53:59;17.38;;;11.15;;
36009;SDS011;22076;52.182;5.404;2023-09-18T06:56:27;24.42;;;12.23;;
36009;SDS011;22076;52.182;5.404;2023-09-18T06:58:54;12.75;;;9.27;;
36009;SDS011;22076;52.182;5.404;2023-09-18T07:01:21;14.52;;;9.40;;
36009;SDS011;22076;52.182;5.404;2023-09-18T07:03:49;14.75;;;10.02;;
36009;SDS011;22076;52.182;5.404;2023-09-18T07:06:18;18.50;;;9.70;;
36009;SDS011;22076;52.182;5.404;2023-09-18T07:08:46;13.48;;;9.10;;
36009;SDS011;22076;52.182;5.404;2023-09-18T07:11:15;14.73;;;9.13;;
36009;SDS011;22076;52.182;5.404;2023-09-18T07:13:43;12.63;;;9.27;;
36009;SDS011;22076;52.182;5.404;2023-09-18T07:16:10;16.42;;;10.98;;
36009;SDS011;22076;52.182;5.404;2023-09-18T07:18:36;18.58;;;12.65;;
36009;SDS011;22076;52.182;5.404;2023-09-18T07:21:04;22.45;;;12.68;;
36009;SDS011;22076;52.182;5.404;2023-09-18T07:23:32;21.75;;;12.60;;
36009;SDS011;22076;52.182;5.404;2023-09-18T07:26:08;22.08;;;11.43;;
36009;SDS011;22076;52.182;5.404;2023-09-18T07:28:34;21.55;;;12.30;;
36009;SDS011;22076;52.182;5.404;2023-09-18T07:31:06;25.92;;;15.68;;
36009;SDS011;22076;52.182;5.404;2023-09-18T07:33:34;20.52;;;15.18;;
36009;SDS011;22076;52.182;5.404;2023-09-18T07:36:01;12.82;;;8.80;;
36009;SDS011;22076;52.182;5.404;2023-09-18T07:38:28;26.83;;;13.85;;
36009;SDS011;22076;52.182;5.404;2023-09-18T07:40:57;16.02;;;10.95;;
36009;SDS011;22076;52.182;5.404;2023-09-18T07:43:23;20.58;;;12.85;;
36009;SDS011;22076;52.182;5.404;2023-09-18T07:45:50;29.85;;;14.88;;
36009;SDS011;22076;52.182;5.404;2023-09-18T07:48:17;29.05;;;16.95;;
36009;SDS011;22076;52.182;5.404;2023-09-18T07:50:46;21.90;;;11.15;;
36009;SDS011;22076;52.182;5.404;2023-09-18T07:53:14;18.17;;;12.95;;
36009;SDS011;22076;52.182;5.404;2023-09-18T07:55:41;16.73;;;10.85;;
36009;SDS011;22076;52.182;5.404;2023-09-18T07:58:09;13.85;;;9.57;;
36009;SDS011;22076;52.182;5.404;2023-09-18T08:00:36;13.75;;;9.70;;
36009;SDS011;22076;52.182;5.404;2023-09-18T08:03:03;15.50;;;8.73;;
36009;SDS011;22076;52.182;5.404;2023-09-18T08:05:30;17.55;;;11.18;;
36009;SDS011;22076;52.182;5.404;2023-09-18T08:07:56;18.52;;;11.35;;
36009;SDS011;22076;52.182;5.404;2023-09-18T08:10:24;19.40;;;13.23;;
36009;SDS011;22076;52.182;5.404;2023-09-18T08:12:51;15.93;;;10.50;;
36009;SDS011;22076;52.182;5.404;2023-09-18T08:15:19;13.23;;;10.90;;
36009;SDS011;22076;52.182;5.404;2023-09-18T08:17:46;19.38;;;12.43;;
36009;SDS011;22076;52.182;5.404;2023-09-18T08:20:17;20.92;;;14.15;;
36009;SDS011;22076;52.182;5.404;2023-09-18T08:22:44;19.15;;;11.55;;
36009;SDS011;22076;52.182;5.404;2023-09-18T08:25:18;14.82;;;9.98;;
36009;SDS011;22076;52.182;5.404;2023-09-18T08:27:45;16.20;;;10.70;;
36009;SDS011;22076;52.182;5.404;2023-09-18T08:30:12;17.65;;;10.10;;
36009;SDS011;22076;52.182;5.404;2023-09-18T08:32:42;14.18;;;8.38;;
36009;SDS011;22076;52.182;5.404;2023-09-18T08:35:08;11.15;;;8.55;;
36009;SDS011;22076;52.182;5.404;2023-09-18T08:37:35;15.80;;;9.13;;
36009;SDS011;22076;52.182;5.404;2023-09-18T08:40:02;7.78;;;6.50;;
36009;SDS011;22076;52.182;5.404;2023-09-18T08:42:34;11.65;;;7.65;;
36009;SDS011;22076;52.182;5.404;2023-09-18T08:45:02;8.15;;;5.90;;
36009;SDS011;22076;52.182;5.404;2023-09-18T08:47:34;13.52;;;8.27;;
36009;SDS011;22076;52.182;5.404;2023-09-18T08:50:02;10.52;;;8.05;;
36009;SDS011;22076;52.182;5.404;2023-09-18T08:52:30;10.55;;;6.07;;
36009;SDS011;22076;52.182;5.404;2023-09-18T08:54:56;8.63;;;5.68;;
36009;SDS011;22076;52.182;5.404;2023-09-18T08:57:27;7.20;;;5.07;;
36009;SDS011;22076;52.182;5.404;2023-09-18T08:59:55;7.70;;;4.55;;
36009;SDS011;22076;52.182;5.404;2023-09-18T09:02:22;6.35;;;4.53;;
36009;SDS011;22076;52.182;5.404;2023-09-18T09:04:49;6.18;;;4.00;;
36009;SDS011;22076;52.182;5.404;2023-09-18T09:07:17;8.52;;;5.15;;
36009;SDS011;22076;52.182;5.404;2023-09-18T09:09:43;5.25;;;4.03;;
36009;SDS011;22076;52.182;5.404;2023-09-18T09:12:10;7.88;;;5.32;;
36009;SDS011;22076;52.182;5.404;2023-09-18T09:14:36;6.97;;;4.80;;
36009;SDS011;22076;52.182;5.404;2023-09-18T09:17:03;6.95;;;5.13;;
36009;SDS011;22076;52.182;5.404;2023-09-18T09:19:32;5.38;;;4.47;;
36009;SDS011;22076;52.182;5.404;2023-09-18T09:22:03;6.90;;;4.68;;
36009;SDS011;22076;52.182;5.404;2023-09-18T09:24:39;7.07;;;4.32;;
36009;SDS011;22076;52.182;5.404;2023-09-18T09:27:06;8.90;;;5.80;;
36009;SDS011;22076;52.182;5.404;2023-09-18T09:29:33;8.95;;;4.50;;
36009;SDS011;22076;52.182;5.404;2023-09-18T09:32:11;8.65;;;4.35;;
36009;SDS011;22076;52.182;5.404;2023-09-18T09:34:38;7.25;;;5.63;;
36009;SDS011;22076;52.182;5.404;2023-09-18T09:37:08;5.65;;;4.07;;
36009;SDS011;22076;52.182;5.404;2023-09-18T09:39:47;8.88;;;5.20;;
36009;SDS011;22076;52.182;5.404;2023-09-18T09:42:15;5.68;;;3.42;;
36009;SDS011;22076;52.182;5.404;2023-09-18T09:44:55;9.13;;;4.15;;
36009;SDS011;22076;52.182;5.404;2023-09-18T09:47:26;6.28;;;4.57;;
36009;SDS011;22076;52.182;5.404;2023-09-18T09:49:55;4.82;;;3.97;;
36009;SDS011;22076;52.182;5.404;2023-09-18T09:52:22;7.63;;;5.05;;
36009;SDS011;22076;52.182;5.404;2023-09-18T09:54:50;4.07;;;3.20;;
36009;SDS011;22076;52.182;5.404;2023-09-18T09:57:17;12.65;;;6.03;;
36009;SDS011;22076;52.182;5.404;2023-09-18T09:59:43;9.27;;;5.25;;
36009;SDS011;22076;52.182;5.404;2023-09-18T10:02:10;7.65;;;4.38;;
36009;SDS011;22076;52.182;5.404;2023-09-18T10:04:39;6.57;;;5.55;;
36009;SDS011;22076;52.182;5.404;2023-09-18T10:07:14;7.40;;;6.65;;
36009;SDS011;22076;52.182;5.404;2023-09-18T10:09:43;13.57;;;8.55;;
36009;SDS011;22076;52.182;5.404;2023-09-18T10:12:15;7.97;;;6.32;;
36009;SDS011;22076;52.182;5.404;2023-09-18T10:14:45;6.53;;;5.97;;
36009;SDS011;22076;52.182;5.404;2023-09-18T10:17:15;6.88;;;4.75;;
36009;SDS011;22076;52.182;5.404;2023-09-18T10:19:45;5.05;;;4.15;;
36009;SDS011;22076;52.182;5.404;2023-09-18T10:22:21;9.40;;;6.03;;
36009;SDS011;22076;52.182;5.404;2023-09-18T10:24:54;6.10;;;5.53;;
36009;SDS011;22076;52.182;5.404;2023-09-18T10:27:27;5.80;;;5.20;;
36009;SDS011;22076;52.182;5.404;2023-09-18T10:29:57;8.13;;;7.32;;
36009;SDS011;22076;52.182;5.404;2023-09-18T10:32:29;9.98;;;7.35;;
36009;SDS011;22076;52.182;5.404;2023-09-18T10:34:57;8.20;;;6.15;;
36009;SDS011;22076;52.182;5.404;2023-09-18T10:37:26;8.98;;;5.95;;
36009;SDS011;22076;52.182;5.404;2023-09-18T10:39:54;10.02;;;9.02;;
36009;SDS011;22076;52.182;5.404;2023-09-18T10:42:23;6.90;;;5.60;;
36009;SDS011;22076;52.182;5.404;2023-09-18T10:44:51;6.60;;;6.00;;
36009;SDS011;22076;52.182;5.404;2023-09-18T10:47:18;6.82;;;5.60;;
36009;SDS011;22076;52.182;5.404;2023-09-18T10:49:45;8.88;;;6.82;;
36009;SDS011;22076;52.182;5.404;2023-09-18T10:52:16;8.18;;;7.38;;
36009;SDS011;22076;52.182;5.404;2023-09-18T10:57:49;7.30;;;5.28;;
36009;SDS011;22076;52.182;5.404;2023-09-18T11:00:18;8.40;;;6.13;;
36009;SDS011;22076;52.182;5.404;2023-09-18T11:02:48;7.57;;;6.65;;
36009;SDS011;22076;52.182;5.404;2023-09-18T11:05:28;9.80;;;6.45;;
36009;SDS011;22076;52.182;5.404;2023-09-18T11:10:58;9.13;;;6.82;;
36009;SDS011;22076;52.182;5.404;2023-09-18T11:13:30;10.63;;;6.57;;
36009;SDS011;22076;52.182;5.404;2023-09-18T11:16:02;11.10;;;7.30;;
36009;SDS011;22076;52.182;5.404;2023-09-18T11:18:40;8.77;;;6.82;;
36009;SDS011;22076;52.182;5.404;2023-09-18T11:21:07;7.55;;;5.55;;
36009;SDS011;22076;52.182;5.404;2023-09-18T11:23:36;8.02;;;6.43;;
36009;SDS011;22076;52.182;5.404;2023-09-18T11:26:06;11.43;;;7.43;;
36009;SDS011;22076;52.182;5.404;2023-09-18T11:28:38;8.82;;;6.30;;
36009;SDS011;22076;52.182;5.404;2023-09-18T11:31:06;9.35;;;6.47;;
36009;SDS011;22076;52.182;5.404;2023-09-18T11:33:33;8.57;;;5.90;;
36009;SDS011;22076;52.182;5.404;2023-09-18T11:36:05;6.90;;;5.60;;
36009;SDS011;22076;52.182;5.404;2023-09-18T11:38:34;5.45;;;4.65;;
36009;SDS011;22076;52.182;5.404;2023-09-18T11:41:08;8.48;;;5.03;;
36009;SDS011;22076;52.182;5.404;2023-09-18T11:43:47;7.55;;;5.03;;
36009;SDS011;22076;52.182;5.404;2023-09-18T11:46:18;14.48;;;6.32;;
36009;SDS011;22076;52.182;5.404;2023-09-18T11:48:46;6.00;;;4.60;;
36009;SDS011;22076;52.182;5.404;2023-09-18T11:51:20;4.60;;;4.10;;
36009;SDS011;22076;52.182;5.404;2023-09-18T11:53:49;8.07;;;5.72;;
36009;SDS011;22076;52.182;5.404;2023-09-18T11:56:19;8.27;;;4.60;;
36009;SDS011;22076;52.182;5.404;2023-09-18T11:58:51;6.82;;;5.53;;
36009;SDS011;22076;52.182;5.404;2023-09-18T12:01:21;7.47;;;5.05;;
36009;SDS011;22076;52.182;5.404;2023-09-18T12:03:52;4.68;;;4.13;;
36009;SDS011;22076;52.182;5.404;2023-09-18T12:06:19;9.75;;;6.63;;
36009;SDS011;22076;52.182;5.404;2023-09-18T12:08:46;11.25;;;5.65;;
36009;SDS011;22076;52.182;5.404;2023-09-18T12:11:14;6.95;;;5.72;;
36009;SDS011;22076;52.182;5.404;2023-09-18T12:13:44;10.00;;;6.80;;
36009;SDS011;22076;52.182;5.404;2023-09-18T12:16:11;9.77;;;7.25;;
36009;SDS011;22076;52.182;5.404;2023-09-18T12:18:48;9.90;;;8.20;;
36009;SDS011;22076;52.182;5.404;2023-09-18T12:21:16;12.07;;;8.55;;
36009;SDS011;22076;52.182;5.404;2023-09-18T12:23:43;8.98;;;7.72;;
36009;SDS011;22076;52.182;5.404;2023-09-18T12:26:11;12.50;;;7.65;;
36009;SDS011;22076;52.182;5.404;2023-09-18T12:28:41;13.15;;;7.72;;
36009;SDS011;22076;52.182;5.404;2023-09-18T12:31:09;8.73;;;6.35;;
36009;SDS011;22076;52.182;5.404;2023-09-18T12:33:37;7.78;;;5.07;;
36009;SDS011;22076;52.182;5.404;2023-09-18T12:36:06;6.35;;;5.18;;
36009;SDS011;22076;52.182;5.404;2023-09-18T12:38:33;7.95;;;5.72;;
36009;SDS011;22076;52.182;5.404;2023-09-18T12:41:02;6.15;;;4.40;;
36009;SDS011;22076;52.182;5.404;2023-09-18T12:43:38;8.30;;;4.75;;
36009;SDS011;22076;52.182;5.404;2023-09-18T12:46:06;5.88;;;4.60;;
36009;SDS011;22076;52.182;5.404;2023-09-18T12:48:36;8.65;;;4.38;;
36009;SDS011;22076;52.182;5.404;2023-09-18T12:51:04;5.88;;;4.80;;
36009;SDS011;22076;52.182;5.404;2023-09-18T12:53:33;7.82;;;4.78;;
36009;SDS011;22076;52.182;5.404;2023-09-18T12:58:36;5.18;;;4.00;;
36009;SDS011;22076;52.182;5.404;2023-09-18T13:01:06;7.63;;;4.43;;
36009;SDS011;22076;52.182;5.404;2023-09-18T13:03:35;8.18;;;5.05;;
36009;SDS011;22076;52.182;5.404;2023-09-18T13:06:10;10.73;;;5.57;;
36009;SDS011;22076;52.182;5.404;2023-09-18T13:08:39;6.13;;;4.72;;
36009;SDS011;22076;52.182;5.404;2023-09-18T13:11:05;7.18;;;5.57;;
36009;SDS011;22076;52.182;5.404;2023-09-18T13:13:32;7.38;;;5.28;;
36009;SDS011;22076;52.182;5.404;2023-09-18T13:16:00;7.35;;;4.90;;
36009;SDS011;22076;52.182;5.404;2023-09-18T13:18:29;8.02;;;5.07;;
36009;SDS011;22076;52.182;5.404;2023-09-18T13:21:14;8.30;;;4.57;;
36009;SDS011;22076;52.182;5.404;2023-09-18T13:23:41;6.03;;;5.40;;
36009;SDS011;22076;52.182;5.404;2023-09-18T13:26:09;8.32;;;5.22;;
36009;SDS011;22076;52.182;5.404;2023-09-18T13:28:36;5.05;;;4.43;;
36009;SDS011;22076;52.182;5.404;2023-09-18T13:31:05;8.90;;;5.47;;
36009;SDS011;22076;52.182;5.404;2023-09-18T13:33:32;8.38;;;4.90;;
36009;SDS011;22076;52.182;5.404;2023-09-18T13:35:59;7.35;;;4.53;;
36009;SDS011;22076;52.182;5.404;2023-09-18T13:38:27;9.48;;;4.05;;
36009;SDS011;22076;52.182;5.404;2023-09-18T13:40:54;6.82;;;4.03;;
36009;SDS011;22076;52.182;5.404;2023-09-18T13:43:21;10.85;;;5.05;;
36009;SDS011;22076;52.182;5.404;2023-09-18T13:48:46;6.80;;;4.57;;
36009;SDS011;22076;52.182;5.404;2023-09-18T13:51:18;5.32;;;4.22;;
36009;SDS011;22076;52.182;5.404;2023-09-18T13:53:55;5.93;;;4.72;;
36009;SDS011;22076;52.182;5.404;2023-09-18T13:56:22;6.95;;;4.22;;
36009;SDS011;22076;52.182;5.404;2023-09-18T13:58:52;5.38;;;3.60;;
36009;SDS011;22076;52.182;5.404;2023-09-18T14:01:20;3.92;;;3.22;;
36009;SDS011;22076;52.182;5.404;2023-09-18T14:03:47;6.80;;;4.10;;
36009;SDS011;22076;52.182;5.404;2023-09-18T14:06:18;5.85;;;3.67;;
36009;SDS011;22076;52.182;5.404;2023-09-18T14:08:45;6.53;;;3.60;;
36009;SDS011;22076;52.182;5.404;2023-09-18T14:11:13;6.32;;;3.72;;
36009;SDS011;22076;52.182;5.404;2023-09-18T14:13:39;6.80;;;3.30;;
36009;SDS011;22076;52.182;5.404;2023-09-18T14:16:06;5.93;;;3.67;;
36009;SDS011;22076;52.182;5.404;2023-09-18T14:18:33;3.58;;;2.85;;
36009;SDS011;22076;52.182;5.404;2023-09-18T14:20:59;8.35;;;2.90;;
36009;SDS011;22076;52.182;5.404;2023-09-18T14:26:00;3.55;;;2.50;;
36009;SDS011;22076;52.182;5.404;2023-09-18T14:28:28;5.72;;;2.72;;
36009;SDS011;22076;52.182;5.404;2023-09-18T14:30:55;6.13;;;2.80;;
36009;SDS011;22076;52.182;5.404;2023-09-18T14:33:21;7.25;;;2.85;;
36009;SDS011;22076;52.182;5.404;2023-09-18T14:35:52;5.72;;;3.00;;
36009;SDS011;22076;52.182;5.404;2023-09-18T14:38:19;5.07;;;2.85;;
36009;SDS011;22076;52.182;5.404;2023-09-18T14:40:46;3.95;;;2.60;;
36009;SDS011;22076;52.182;5.404;2023-09-18T14:43:12;6.22;;;2.80;;
36009;SDS011;22076;52.182;5.404;2023-09-18T14:45:40;3.65;;;2.55;;
36009;SDS011;22076;52.182;5.404;2023-09-18T14:48:13;3.78;;;2.30;;
36009;SDS011;22076;52.182;5.404;2023-09-18T14:50:44;6.57;;;2.50;;
36009;SDS011;22076;52.182;5.404;2023-09-18T14:53:11;9.70;;;2.70;;
36009;SDS011;22076;52.182;5.404;2023-09-18T14:55:40;4.88;;;2.20;;
36009;SDS011;22076;52.182;5.404;2023-09-18T14:58:08;3.35;;;2.30;;
36009;SDS011;22076;52.182;5.404;2023-09-18T15:00:35;5.13;;;2.65;;